Time;durP1;ratioP1;P1;durP2;ratioP2;P2;SDS_P1;SDS_P2;PMS_P1;PMS_P2;Temp;Humidity;BMP_temperature;BMP_pressure;BME280_temperature;BME280_humidity;BME280_pressure;Samples;Min_cycle;Max_cycle;Signal;HPM_P1;HPM_P2
2022/12/13 00:00:38;;;;;;;;;;;;;;;13.14;70.01;100679.13;5101192;28;20450;-85
2022/12/13 00:03:03;;;;;;;;;;;;;;;13.21;70.09;100675.97;5108482;28;19916;-83
2022/12/13 00:05:28;;;;;;;;;;;;;;;13.18;69.98;100678.44;5108958;28;19919;-83
2022/12/13 00:07:54;;;;;;;;;;;;;;;13.17;69.88;100666.19;5109514;28;19915;-83
2022/12/13 00:10:19;;;;;;;;;;;;;;;13.19;69.96;100667.13;5099627;28;20380;-83
2022/12/13 00:12:44;;;;;;;;;;;;;;;13.21;69.88;100654.97;5103497;28;20471;-83
2022/12/13 00:15:10;;;;;;;;;;;;;;;13.21;69.77;100649.75;5108089;28;20419;-83
2022/12/13 00:17:35;;;;;;;;;;;;;;;13.17;69.73;100653.94;5111024;28;19970;-83
2022/12/13 00:20:01;;;;;;;;;;;;;;;13.17;69.55;100648.72;5106379;28;19972;-83
2022/12/13 00:22:26;;;;;;;;;;;;;;;13.14;69.45;100640.69;5109189;28;20398;-83
2022/12/13 00:24:57;;;;;;;;;;;;;;;13.09;69.47;100644.88;5126213;28;19939;-83
2022/12/13 00:27:23;;;;;;;;;;;;;;;13.05;69.86;100677.03;5125708;28;20010;-83
2022/12/13 00:29:49;;;;;;;;;;;;;;;13.08;69.92;100686.75;5101133;28;20565;-83
2022/12/13 00:32:14;;;;;;;;;;;;;;;13.08;69.84;100691.97;5116263;28;20045;-83
2022/12/13 00:34:39;;;;;;;;;;;;;;;13.10;69.49;100704.34;5130278;28;19972;-84
2022/12/13 00:37:05;;;;;;;;;;;;;;;13.11;69.33;100714.00;5127432;28;19979;-84
2022/12/13 00:39:30;;;;;;;;;;;;;;;13.15;69.46;100728.13;5124356;28;20427;-84
2022/12/13 00:41:56;;;;;;;;;;;;;;;13.13;69.77;100733.31;5106024;28;20383;-83
2022/12/13 00:44:21;;;;;;;;;;;;;;;13.14;69.56;100749.94;5130222;28;20377;-84
2022/12/13 00:46:47;;;;;;;;;;;;;;;13.18;69.54;100736.13;5112413;28;20422;-84
2022/12/13 00:49:12;;;;;;;;;;;;;;;13.12;69.38;100725.38;5110545;28;19916;-84
2022/12/13 00:51:38;;;;;;;;;;;;;;;13.14;69.42;100728.94;5113328;28;19962;-84
2022/12/13 00:54:04;;;;;;;;;;;;;;;13.14;69.29;100731.56;5113670;28;19950;-84
2022/12/13 00:56:29;;;;;;;;;;;;;;;13.12;69.51;100739.41;5131763;28;20350;-84
2022/12/13 00:58:55;;;;;;;;;;;;;;;13.07;69.87;100726.91;5128394;28;19922;-83
2022/12/13 01:01:28;;;;;;;;;;;;;;;13.08;69.86;100727.00;5128395;28;19923;-84
2022/12/13 01:03:55;;;;;;;;;;;;;;;13.09;69.88;100720.00;5109388;28;19912;-84
2022/12/13 01:06:22;;;;;;;;;;;;;;;13.02;69.75;100732.84;5104646;27;19939;-83
2022/12/13 01:08:47;;;;;;;;;;;;;;;13.07;69.63;100735.66;5113340;27;20035;-84
2022/12/13 01:11:13;;;;;;;;;;;;;;;13.05;69.60;100739.94;5114145;27;20393;-84
2022/12/13 01:13:38;;;;;;;;;;;;;;;13.07;69.49;100724.28;5113743;27;19926;-84
2022/12/13 01:16:05;;;;;;;;;;;;;;;13.06;69.32;100717.22;5105052;27;19941;-84
2022/12/13 01:18:30;;;;;;;;;;;;;;;13.08;69.57;100702.47;5114053;27;19948;-83
2022/12/13 01:21:03;;;;;;;;;;;;;;;13.02;69.68;100697.88;5128948;27;20014;-84
2022/12/13 01:23:29;;;;;;;;;;;;;;;13.00;69.35;100705.66;5134559;27;20002;-84
2022/12/13 01:25:54;;;;;;;;;;;;;;;13.00;69.66;100713.53;5106620;27;20006;-84
2022/12/13 01:28:20;;;;;;;;;;;;;;;13.04;69.74;100730.31;5096217;27;20388;-84
2022/12/13 01:30:59;;;;;;;;;;;;;;;13.02;69.73;100740.72;5115498;27;20374;-84
2022/12/13 01:33:24;;;;;;;;;;;;;;;13.01;69.64;100731.03;5128961;27;19915;-84
2022/12/13 01:35:50;;;;;;;;;;;;;;;13.03;69.48;100742.50;5114471;27;19919;-84
2022/12/13 01:38:15;;;;;;;;;;;;;;;13.04;69.81;100749.53;5130468;27;19923;-84
2022/12/13 01:40:57;;;;;;;;;;;;;;;13.04;69.57;100754.78;5126007;27;19962;-84
2022/12/13 01:43:45;;;;;;;;;;;;;;;13.00;69.56;100768.59;5112090;27;19943;-84
2022/12/13 01:46:11;;;;;;;;;;;;;;;12.98;69.76;100757.13;5126263;27;19937;-84
2022/12/13 01:48:40;;;;;;;;;;;;;;;13.00;69.61;100751.97;5113590;27;20505;-84
2022/12/13 01:51:07;;;;;;;;;;;;;;;12.99;69.25;100745.81;5106908;27;20022;-84
2022/12/13 01:53:33;;;;;;;;;;;;;;;13.01;69.46;100753.75;5105714;27;19911;-85
2022/12/13 01:56:06;;;;;;;;;;;;;;;12.99;69.58;100758.91;5116405;27;20433;-84
2022/12/13 01:58:32;;;;;;;;;;;;;;;13.02;69.75;100755.56;5105160;27;19980;-84
2022/12/13 02:00:57;;;;;;;;;;;;;;;13.01;69.64;100766.84;5103275;27;20384;-84
2022/12/13 02:03:23;;;;;;;;;;;;;;;12.99;69.49;100766.78;5131597;27;19911;-84
2022/12/13 02:05:58;;;;;;;;;;;;;;;13.01;69.64;100767.75;5109762;28;19937;-84
2022/12/13 02:08:24;;;;;;;;;;;;;;;12.98;69.77;100774.59;5126788;27;19994;-84
2022/12/13 02:10:49;;;;;;;;;;;;;;;12.97;69.53;100796.38;5112997;27;20010;-83
2022/12/13 02:13:15;;;;;;;;;;;;;;;12.96;69.41;100805.97;5113943;27;19920;-84
2022/12/13 02:15:46;;;;;;;;;;;;;;;12.97;69.30;100806.84;5109889;27;20384;-84
2022/12/13 02:18:24;;;;;;;;;;;;;;;12.97;69.32;100785.88;5115008;27;20489;-84
2022/12/13 02:20:52;;;;;;;;;;;;;;;12.97;69.52;100806.84;5103754;28;19963;-84
2022/12/13 02:23:33;;;;;;;;;;;;;;;12.96;69.52;100816.47;5106404;28;19930;-84
2022/12/13 02:26:14;;;;;;;;;;;;;;;12.94;69.45;100822.47;5093031;28;19924;-83
2022/12/13 02:28:55;;;;;;;;;;;;;;;12.94;69.59;100827.69;5111002;28;20033;-84
2022/12/13 02:31:36;;;;;;;;;;;;;;;12.91;69.80;100828.47;5108179;28;20436;-84
2022/12/13 02:34:05;;;;;;;;;;;;;;;12.87;69.52;100816.06;5109299;28;19923;-84
2022/12/13 02:36:50;;;;;;;;;;;;;;;12.87;69.29;100825.63;5110328;28;19935;-84
2022/12/13 02:39:18;;;;;;;;;;;;;;;12.88;68.90;100814.31;5096343;28;19920;-84
2022/12/13 02:41:50;;;;;;;;;;;;;;;12.79;69.37;100801.69;5110583;28;19915;-84
2022/12/13 02:44:22;;;;;;;;;;;;;;;12.81;69.54;100793.06;5084168;28;19919;-84
2022/12/13 02:47:08;;;;;;;;;;;;;;;12.81;69.22;100777.34;5104329;28;19916;-84
2022/12/13 02:49:34;;;;;;;;;;;;;;;12.82;69.40;100815.81;5105583;28;19965;-84
2022/12/13 02:52:00;;;;;;;;;;;;;;;12.86;69.54;100826.44;5111168;28;19926;-84
2022/12/13 02:54:25;;;;;;;;;;;;;;;12.81;69.29;100807.91;5105186;28;20371;-84
2022/12/13 02:56:55;;;;;;;;;;;;;;;12.85;69.26;100833.44;5100584;28;20040;-83
2022/12/13 02:59:20;;;;;;;;;;;;;;;12.84;69.12;100831.63;5101270;28;19920;-83
2022/12/13 03:01:48;;;;;;;;;;;;;;;12.77;69.72;100795.50;5108900;28;19926;-84
2022/12/13 03:04:20;;;;;;;;;;;;;;;12.75;69.49;100836.44;5100829;28;19943;-83
2022/12/13 03:07:05;;;;;;;;;;;;;;;12.81;69.51;100821.00;5093172;28;19955;-84
2022/12/13 03:09:37;;;;;;;;;;;;;;;12.79;69.55;100813.06;5092177;28;20015;-83
2022/12/13 03:14:55;;;;;;;;;;;;;;;12.74;69.21;100796.25;5104461;28;19949;-84
2022/12/13 03:17:21;;;;;;;;;;;;;;;12.75;69.19;100790.16;5091787;28;20359;-84
2022/12/13 03:19:46;;;;;;;;;;;;;;;12.75;69.28;100807.63;5111500;28;19998;-84
2022/12/13 03:22:11;;;;;;;;;;;;;;;12.70;69.27;100840.56;5109377;28;20389;-84
2022/12/13 03:24:37;;;;;;;;;;;;;;;12.71;68.87;100831.91;5104944;28;20446;-84
2022/12/13 03:27:03;;;;;;;;;;;;;;;12.64;68.97;100825.47;5102324;28;20422;-85
2022/12/13 03:29:28;;;;;;;;;;;;;;;12.63;68.95;100824.56;5080529;28;20385;-85
2022/12/13 03:31:53;;;;;;;;;;;;;;;12.63;68.83;100847.25;5101957;28;19955;-85
2022/12/13 03:34:19;;;;;;;;;;;;;;;12.62;69.36;100854.22;5108665;28;20497;-85
2022/12/13 03:36:44;;;;;;;;;;;;;;;12.60;69.14;100862.81;5103302;28;20386;-85
2022/12/13 03:39:10;;;;;;;;;;;;;;;12.58;68.99;100865.38;5103810;28;19965;-84
2022/12/13 03:41:35;;;;;;;;;;;;;;;12.66;68.53;100859.59;5110232;28;20396;-85
2022/12/13 03:44:04;;;;;;;;;;;;;;;12.60;68.99;100870.69;5110380;28;20381;-85
2022/12/13 03:46:31;;;;;;;;;;;;;;;12.68;69.15;100871.94;5093239;28;20389;-85
2022/12/13 03:48:56;;;;;;;;;;;;;;;12.65;69.14;100879.66;5109024;28;19955;-85
2022/12/13 03:51:22;;;;;;;;;;;;;;;12.62;69.40;100875.16;5104860;28;19958;-85
2022/12/13 03:53:47;;;;;;;;;;;;;;;12.66;68.96;100865.75;5110273;28;19942;-84
2022/12/13 03:56:12;;;;;;;;;;;;;;;12.58;69.03;100864.47;5105641;28;19963;-84
2022/12/13 03:58:41;;;;;;;;;;;;;;;12.59;69.16;100872.41;5076038;28;19954;-84
2022/12/13 04:01:07;;;;;;;;;;;;;;;12.60;69.22;100874.19;5098278;28;20032;-84
2022/12/13 04:03:33;;;;;;;;;;;;;;;12.57;69.01;100875.75;5108993;28;20006;-83
2022/12/13 04:05:58;;;;;;;;;;;;;;;12.58;69.04;100891.56;5110431;28;20441;-84
2022/12/13 04:08:23;;;;;;;;;;;;;;;12.60;68.87;100895.16;5097643;28;19916;-84
2022/12/13 04:10:49;;;;;;;;;;;;;;;12.61;68.87;100906.53;5096508;28;19915;-83
2022/12/13 04:13:32;;;;;;;;;;;;;;;12.63;68.94;100916.25;5098436;28;20274;-84
2022/12/13 04:15:58;;;;;;;;;;;;;;;12.60;68.91;100916.13;5096777;28;20030;-84
2022/12/13 04:18:23;;;;;;;;;;;;;;;12.56;68.93;100918.53;5107708;28;20014;-84
2022/12/13 04:20:49;;;;;;;;;;;;;;;12.52;68.43;100906.09;5105708;28;19963;-83
2022/12/13 04:23:14;;;;;;;;;;;;;;;12.48;68.43;100907.66;5108368;28;20453;-84
2022/12/13 04:25:40;;;;;;;;;;;;;;;12.43;68.92;100893.47;5108373;28;20392;-85
2022/12/13 04:28:06;;;;;;;;;;;;;;;12.44;68.87;100895.22;5109371;28;19916;-84
2022/12/13 04:30:31;;;;;;;;;;;;;;;12.48;69.01;100898.91;5098865;28;20409;-84
2022/12/13 04:32:57;;;;;;;;;;;;;;;12.50;69.06;100902.50;5108636;28;20389;-84
2022/12/13 04:35:23;;;;;;;;;;;;;;;12.46;68.68;100898.84;5100866;28;19965;-84
2022/12/13 04:37:48;;;;;;;;;;;;;;;12.48;68.75;100897.19;5103659;28;20415;-84
2022/12/13 04:40:14;;;;;;;;;;;;;;;12.43;68.76;100919.66;5112439;28;19919;-83
2022/12/13 04:42:39;;;;;;;;;;;;;;;12.43;69.13;100909.16;5113362;28;19984;-83
2022/12/13 04:45:05;;;;;;;;;;;;;;;12.43;68.82;100904.81;5099134;28;19970;-86
2022/12/13 04:47:30;;;;;;;;;;;;;;;12.43;68.99;100902.19;5114675;28;20389;-85
2022/12/13 04:49:56;;;;;;;;;;;;;;;12.42;68.93;100905.66;5113326;28;19916;-85
2022/12/13 04:52:21;;;;;;;;;;;;;;;12.45;69.08;100906.63;5110267;28;20421;-85
2022/12/13 04:54:47;;;;;;;;;;;;;;;12.42;68.76;100918.75;5102677;28;20471;-85
2022/12/13 04:57:12;;;;;;;;;;;;;;;12.39;69.02;100907.22;5111595;28;19977;-86
2022/12/13 04:59:38;;;;;;;;;;;;;;;12.34;69.16;100919.19;5103021;28;20412;-85
2022/12/13 05:02:03;;;;;;;;;;;;;;;12.39;68.87;100915.97;5099819;28;19916;-86
2022/12/13 05:04:29;;;;;;;;;;;;;;;12.41;68.91;100910.81;5105366;28;20552;-85
2022/12/13 05:06:56;;;;;;;;;;;;;;;12.40;68.86;100909.00;5103360;28;19920;-85
2022/12/13 05:09:21;;;;;;;;;;;;;;;12.39;68.78;100915.09;5101123;28;19923;-86
2022/12/13 05:11:47;;;;;;;;;;;;;;;12.39;68.81;100915.09;5093397;28;19915;-86
2022/12/13 05:14:12;;;;;;;;;;;;;;;12.38;68.59;100929.91;5113397;28;19955;-85
2022/12/13 05:16:37;;;;;;;;;;;;;;;12.38;68.73;100929.91;5112906;28;20389;-86
2022/12/13 05:19:03;;;;;;;;;;;;;;;12.32;68.63;100931.28;5114039;28;19923;-85
2022/12/13 05:21:29;;;;;;;;;;;;;;;12.35;68.41;100937.59;5073799;28;20309;-86
2022/12/13 05:23:55;;;;;;;;;;;;;;;12.33;68.71;100933.09;5090162;28;19963;-86
2022/12/13 05:26:21;;;;;;;;;;;;;;;12.28;68.74;100952.94;5109391;28;20474;-85
2022/12/13 05:28:46;;;;;;;;;;;;;;;12.29;68.71;100955.63;5106087;28;19948;-86
2022/12/13 05:31:12;;;;;;;;;;;;;;;12.20;68.26;100963.91;5092059;28;19916;-86
2022/12/13 05:33:37;;;;;;;;;;;;;;;12.20;68.36;100961.28;5081446;28;20362;-85
2022/12/13 05:36:04;;;;;;;;;;;;;;;12.22;68.54;100977.97;5097465;28;19956;-85
2022/12/13 05:38:30;;;;;;;;;;;;;;;12.20;68.34;100981.34;5106040;28;19922;-85
2022/12/13 05:40:55;;;;;;;;;;;;;;;12.22;68.42;100982.31;5089490;28;19922;-85
2022/12/13 05:43:22;;;;;;;;;;;;;;;12.22;68.51;100991.06;5104608;28;19916;-85
2022/12/13 05:45:48;;;;;;;;;;;;;;;12.22;68.09;101011.13;5092474;28;19945;-84
2022/12/13 05:48:13;;;;;;;;;;;;;;;12.20;68.14;101004.91;5096099;28;20007;-89
2022/12/13 05:50:39;;;;;;;;;;;;;;;12.19;68.65;101009.25;5093717;28;20396;-85
2022/12/13 05:53:04;;;;;;;;;;;;;;;12.12;68.32;101011.47;5091114;28;20408;-85
2022/12/13 05:55:30;;;;;;;;;;;;;;;12.10;68.80;101023.56;5089022;28;19924;-84
2022/12/13 05:57:56;;;;;;;;;;;;;;;12.14;68.36;101028.16;5096924;28;19924;-84
2022/12/13 06:00:22;;;;;;;;;;;;;;;12.10;68.38;101024.47;5085868;28;20015;-84
2022/12/13 06:02:47;;;;;;;;;;;;;;;12.09;68.33;101025.31;5076551;28;19952;-83
2022/12/13 06:05:28;;;;;;;;;;;;;;;12.10;68.18;101027.09;5089649;28;19916;-85
2022/12/13 06:13:59;;;;;;;;;;;;;;;12.02;68.09;101042.41;5090323;28;19922;-85
2022/12/13 06:16:26;;;;;;;;;;;;;;;11.99;68.18;101054.44;5087573;28;19920;-85
2022/12/13 06:18:51;;;;;;;;;;;;;;;12.01;68.22;101053.69;5087696;28;19916;-85
2022/12/13 06:21:17;;;;;;;;;;;;;;;12.01;68.38;101065.88;5098852;28;20555;-85
2022/12/13 06:23:42;;;;;;;;;;;;;;;12.03;68.11;101072.09;5084058;28;19915;-84
2022/12/13 06:26:08;;;;;;;;;;;;;;;11.94;68.04;101079.47;5110766;28;20331;-85
2022/12/13 06:28:33;;;;;;;;;;;;;;;11.95;68.35;101081.25;5085573;28;20325;-85
2022/12/13 06:30:59;;;;;;;;;;;;;;;11.94;67.94;101085.59;5104590;28;20445;-84
2022/12/13 06:33:25;;;;;;;;;;;;;;;11.87;67.66;101086.03;5089181;28;19918;-85
2022/12/13 06:35:51;;;;;;;;;;;;;;;11.84;67.50;101091.13;5108220;28;19919;-84
2022/12/13 06:38:16;;;;;;;;;;;;;;;11.82;67.34;101088.41;5109217;28;20407;-84
2022/12/13 06:40:42;;;;;;;;;;;;;;;11.78;67.58;101096.00;5105602;28;19988;-85
2022/12/13 06:43:08;;;;;;;;;;;;;;;11.82;68.20;101100.59;5109359;28;20309;-85
2022/12/13 06:45:37;;;;;;;;;;;;;;;11.82;67.15;101103.22;5101127;28;20397;-85
2022/12/13 06:48:02;;;;;;;;;;;;;;;11.78;68.23;101104.75;5101917;28;19916;-85
2022/12/13 06:50:28;;;;;;;;;;;;;;;11.80;67.93;101113.59;5096346;28;20308;-86
2022/12/13 06:52:53;;;;;;;;;;;;;;;11.84;67.76;101108.53;5104355;28;20288;-85
2022/12/13 06:55:19;;;;;;;;;;;;;;;11.84;68.32;101125.13;5097815;28;20380;-84
2022/12/13 06:57:44;;;;;;;;;;;;;;;11.84;67.90;101129.47;5111922;28;19916;-85
2022/12/13 07:00:10;;;;;;;;;;;;;;;11.82;68.17;101124.16;5112194;28;20316;-84
2022/12/13 07:02:36;;;;;;;;;;;;;;;11.78;67.94;101123.06;5110606;28;19923;-85
2022/12/13 07:05:02;;;;;;;;;;;;;;;11.86;68.29;101130.47;5111006;28;19951;-85
2022/12/13 07:07:28;;;;;;;;;;;;;;;11.89;68.32;101138.50;5100907;28;19958;-84
2022/12/13 07:09:54;;;;;;;;;;;;;;;11.84;68.43;101146.06;5094322;28;19919;-84
2022/12/13 07:12:19;;;;;;;;;;;;;;;11.84;68.30;101151.28;5098284;28;20312;-84
2022/12/13 07:14:45;;;;;;;;;;;;;;;11.84;68.20;101147.78;5107603;28;20318;-85
2022/12/13 07:17:10;;;;;;;;;;;;;;;11.83;68.58;101149.47;5107405;28;20070;-83
2022/12/13 07:19:36;;;;;;;;;;;;;;;11.83;68.17;101152.09;5103822;28;20007;-83
2022/12/13 07:22:04;;;;;;;;;;;;;;;11.83;68.47;101165.19;5125416;27;19926;-83
2022/12/13 07:24:30;;;;;;;;;;;;;;;11.82;68.44;101164.28;5110374;27;19911;-84
2022/12/13 07:26:55;;;;;;;;;;;;;;;11.80;68.39;101168.53;5133360;27;19963;-84
2022/12/13 07:29:21;;;;;;;;;;;;;;;11.77;68.28;101164.88;5133137;27;20010;-85
2022/12/13 07:31:46;;;;;;;;;;;;;;;11.75;68.22;101154.31;5095518;27;19921;-84
2022/12/13 07:34:11;;;;;;;;;;;;;;;11.73;68.07;101148.09;5094673;27;20403;-84
2022/12/13 07:36:37;;;;;;;;;;;;;;;11.73;67.94;101152.44;5114275;27;19915;-84
2022/12/13 07:39:02;;;;;;;;;;;;;;;11.68;67.81;101152.16;5130561;27;20293;-83
2022/12/13 07:41:28;;;;;;;;;;;;;;;11.65;67.47;101154.63;5132090;27;20316;-84
2022/12/13 07:44:14;;;;;;;;;;;;;;;11.64;68.47;101146.66;5088589;28;19968;-84
2022/12/13 07:46:43;;;;;;;;;;;;;;;11.56;68.26;101152.38;5126336;27;19915;-84
2022/12/13 07:49:08;;;;;;;;;;;;;;;11.66;67.58;101173.81;5117513;28;19916;-85
2022/12/13 07:51:34;;;;;;;;;;;;;;;11.59;68.31;101176.09;5097028;28;20434;-83
2022/12/13 07:53:59;;;;;;;;;;;;;;;11.61;67.84;101176.19;5088091;28;20317;-86
2022/12/13 07:56:25;;;;;;;;;;;;;;;11.60;68.59;101171.78;5092181;28;19915;-83
2022/12/13 07:58:50;;;;;;;;;;;;;;;11.54;67.90;101172.31;5130544;28;19923;-84
2022/12/13 08:01:17;;;;;;;;;;;;;;;11.61;67.62;101181.41;5119572;28;20395;-83
2022/12/13 08:03:46;;;;;;;;;;;;;;;11.56;67.57;101188.13;5121204;28;20345;-86
2022/12/13 08:06:12;;;;;;;;;;;;;;;11.60;67.26;101179.63;5126877;28;19912;-85
2022/12/13 08:08:38;;;;;;;;;;;;;;;11.55;67.42;101196.75;5110169;28;20354;-85
2022/12/13 08:11:06;;;;;;;;;;;;;;;11.47;67.19;101177.09;5128797;28;19915;-87
2022/12/13 08:13:37;;;;;;;;;;;;;;;11.47;67.41;101190.19;5092740;27;19961;-85
2022/12/13 08:16:05;;;;;;;;;;;;;;;11.43;67.31;101189.13;5104471;27;19919;-86
2022/12/13 08:18:30;;;;;;;;;;;;;;;11.49;66.85;101191.16;5115735;27;20281;-86
2022/12/13 08:21:02;;;;;;;;;;;;;;;11.46;67.26;101189.28;5099816;27;19927;-86
2022/12/13 08:23:32;;;;;;;;;;;;;;;11.31;67.92;101186.69;5101168;27;19915;-85
2022/12/13 08:25:57;;;;;;;;;;;;;;;11.39;66.93;101193.28;5113673;27;19911;-85
2022/12/13 08:28:23;;;;;;;;;;;;;;;11.32;67.19;101200.66;5147650;27;19912;-86
2022/12/13 08:30:51;;;;;;;;;;;;;;;11.22;67.08;101201.88;5123478;27;19911;-85
2022/12/13 08:33:17;;;;;;;;;;;;;;;11.23;66.55;101203.66;5117536;27;19920;-85
2022/12/13 08:35:42;;;;;;;;;;;;;;;11.33;66.44;101194.63;5104230;27;19912;-86
2022/12/13 08:38:08;;;;;;;;;;;;;;;11.33;66.32;101190.31;5120275;27;19926;-84
2022/12/13 08:40:33;;;;;;;;;;;;;;;11.34;66.20;101193.81;5112630;27;19917;-86
2022/12/13 08:42:59;;;;;;;;;;;;;;;11.18;67.42;101211.22;5117207;27;20525;-85
2022/12/13 08:45:25;;;;;;;;;;;;;;;11.14;67.55;101206.63;5117732;27;20346;-85
2022/12/13 08:47:51;;;;;;;;;;;;;;;11.30;66.71;101215.34;5117696;27;19926;-85
2022/12/13 08:50:16;;;;;;;;;;;;;;;11.19;67.52;101218.25;5110416;28;19912;-85
2022/12/13 08:52:43;;;;;;;;;;;;;;;11.31;66.60;101223.31;5104736;28;19911;-85
2022/12/13 08:55:09;;;;;;;;;;;;;;;11.27;66.23;101233.50;5134094;27;20381;-86
2022/12/13 08:57:35;;;;;;;;;;;;;;;11.32;66.73;101216.34;5106790;28;20400;-86
2022/12/13 09:00:02;;;;;;;;;;;;;;;11.24;66.43;101226.38;5114096;27;19998;-85
2022/12/13 09:02:27;;;;;;;;;;;;;;;11.29;66.07;101214.47;5117608;27;20312;-85
2022/12/13 09:04:53;;;;;;;;;;;;;;;11.10;66.68;101217.72;5117296;27;19911;-86
2022/12/13 09:07:18;;;;;;;;;;;;;;;11.18;66.62;101199.88;5126811;27;20367;-86
2022/12/13 09:09:44;;;;;;;;;;;;;;;11.24;66.40;101204.53;5135965;27;19912;-86
2022/12/13 09:12:09;;;;;;;;;;;;;;;11.15;66.34;101207.53;5117283;27;19911;-85
2022/12/13 09:14:35;;;;;;;;;;;;;;;11.18;65.95;101192.94;5135651;27;19911;-86
2022/12/13 09:17:01;;;;;;;;;;;;;;;11.08;66.85;101201.03;5117503;27;19923;-86
2022/12/13 09:19:26;;;;;;;;;;;;;;;11.17;66.65;101192.84;5123054;27;19947;-85
2022/12/13 09:21:52;;;;;;;;;;;;;;;11.08;66.48;101206.28;5131697;27;19958;-85
2022/12/13 09:24:17;;;;;;;;;;;;;;;11.06;66.71;101205.28;5119024;27;19960;-86
2022/12/13 09:26:43;;;;;;;;;;;;;;;11.13;66.50;101222.22;5106886;28;20391;-86
2022/12/13 09:29:08;;;;;;;;;;;;;;;11.14;65.70;101204.03;5104397;27;20570;-84
2022/12/13 09:31:34;;;;;;;;;;;;;;;11.12;66.04;101215.19;5132882;27;20608;-86
2022/12/13 09:34:00;;;;;;;;;;;;;;;11.09;66.14;101188.88;5134290;27;19911;-86
2022/12/13 09:36:25;;;;;;;;;;;;;;;11.18;66.02;101186.81;5133767;27;20357;-85
2022/12/13 09:38:51;;;;;;;;;;;;;;;11.22;65.62;101196.63;5134249;27;20443;-85
2022/12/13 09:41:21;;;;;;;;;;;;;;;11.10;66.48;101190.69;5113993;27;20453;-85
2022/12/13 09:43:52;;;;;;;;;;;;;;;11.14;66.43;101195.28;5101588;28;19916;-86
2022/12/13 09:46:22;;;;;;;;;;;;;;;11.18;65.76;101199.88;5107888;27;19918;-84
2022/12/13 09:48:47;;;;;;;;;;;;;;;11.08;66.42;101201.03;5105070;27;19911;-84
2022/12/13 09:51:13;;;;;;;;;;;;;;;11.08;65.86;101201.03;5099457;27;19919;-84
2022/12/13 09:53:40;;;;;;;;;;;;;;;11.06;65.96;101200.06;5116913;27;20470;-85
2022/12/13 09:56:10;;;;;;;;;;;;;;;11.12;65.67;101208.25;5122695;27;19912;-85
2022/12/13 09:58:36;;;;;;;;;;;;;;;11.00;66.52;101220.59;5127305;27;19911;-85
2022/12/13 10:01:01;;;;;;;;;;;;;;;10.96;66.77;101205.53;5122729;27;20426;-84
2022/12/13 10:03:27;;;;;;;;;;;;;;;11.05;66.46;101197.34;5115442;27;19947;-83
2022/12/13 10:06:08;;;;;;;;;;;;;;;11.04;67.24;101206.00;5123010;27;20441;-84
2022/12/13 10:08:38;;;;;;;;;;;;;;;11.06;66.74;101207.00;5124404;27;19922;-83
2022/12/13 10:11:04;;;;;;;;;;;;;;;11.05;66.54;101206.09;5097091;28;19939;-86
2022/12/13 10:13:40;;;;;;;;;;;;;;;11.07;66.60;101206.16;5125608;27;19969;-84
2022/12/13 10:16:08;;;;;;;;;;;;;;;11.02;67.05;101220.69;5109307;27;20372;-86
2022/12/13 10:18:37;;;;;;;;;;;;;;;11.05;67.17;101213.94;5115727;27;19911;-86
2022/12/13 10:21:04;;;;;;;;;;;;;;;11.05;67.01;101205.19;5104425;28;20338;-85
2022/12/13 10:23:29;;;;;;;;;;;;;;;11.07;66.87;101200.94;5107554;28;20380;-85
2022/12/13 10:25:55;;;;;;;;;;;;;;;11.06;66.57;101189.59;5099952;28;20014;-85
2022/12/13 10:28:28;;;;;;;;;;;;;;;10.99;66.58;101190.94;5106726;28;20404;-86
2022/12/13 10:30:53;;;;;;;;;;;;;;;11.02;66.95;101194.56;5105187;28;19916;-85
2022/12/13 10:33:26;;;;;;;;;;;;;;;10.98;67.25;101204.84;5109051;28;19915;-85
2022/12/13 10:36:02;;;;;;;;;;;;;;;11.00;66.92;101197.97;5100769;28;19911;-85
2022/12/13 10:38:28;;;;;;;;;;;;;;;10.99;67.11;101200.50;5113568;28;19912;-85
2022/12/13 10:40:54;;;;;;;;;;;;;;;10.99;66.48;101187.44;5102538;28;19916;-84
2022/12/13 10:43:20;;;;;;;;;;;;;;;10.96;66.43;101182.94;5106994;28;19919;-84
2022/12/13 10:45:58;;;;;;;;;;;;;;;10.97;66.46;101182.13;5103267;28;19954;-85
2022/12/13 10:48:29;;;;;;;;;;;;;;;10.95;66.77;101183.75;5094074;27;20310;-86
2022/12/13 10:51:02;;;;;;;;;;;;;;;10.95;66.61;101186.34;5092870;28;19916;-85
2022/12/13 10:53:31;;;;;;;;;;;;;;;10.91;66.81;101188.69;5110496;28;19935;-84
2022/12/13 10:55:57;;;;;;;;;;;;;;;10.95;66.91;101188.97;5101803;28;19912;-85
2022/12/13 10:58:22;;;;;;;;;;;;;;;10.97;66.80;101189.06;5110353;28;20369;-85
2022/12/13 11:00:48;;;;;;;;;;;;;;;10.94;66.66;101194.09;5085708;28;20385;-85
2022/12/13 11:03:33;;;;;;;;;;;;;;;10.91;66.75;101197.44;5091520;28;20443;-85
2022/12/13 11:06:05;;;;;;;;;;;;;;;10.90;67.21;101200.88;5102555;28;19930;-85
2022/12/13 11:08:31;;;;;;;;;;;;;;;10.90;67.07;101197.34;5113058;28;19916;-85
2022/12/13 11:11:00;;;;;;;;;;;;;;;10.93;67.09;101194.91;5112017;28;19933;-85
2022/12/13 11:13:30;;;;;;;;;;;;;;;10.89;67.02;101187.72;5115612;28;19998;-85
2022/12/13 11:15:56;;;;;;;;;;;;;;;10.87;66.96;101184.09;5092525;28;19967;-85
2022/12/13 11:18:22;;;;;;;;;;;;;;;10.88;67.02;101175.44;5110458;28;19915;-85
2022/12/13 11:20:53;;;;;;;;;;;;;;;10.79;67.06;101178.41;5107981;28;19926;-85
2022/12/13 11:23:22;;;;;;;;;;;;;;;10.84;66.56;101179.59;5104502;28;19912;-85
2022/12/13 11:25:47;;;;;;;;;;;;;;;10.82;66.81;101185.56;5109803;28;20442;-85
2022/12/13 11:28:13;;;;;;;;;;;;;;;10.84;67.04;101184.81;5110225;28;19919;-85
2022/12/13 11:30:47;;;;;;;;;;;;;;;10.85;67.15;101180.50;5111427;28;19920;-85
2022/12/13 11:33:19;;;;;;;;;;;;;;;10.83;67.29;101190.84;5111322;28;19912;-85
2022/12/13 11:35:57;;;;;;;;;;;;;;;10.80;67.47;101193.28;5108451;28;19923;-85
2022/12/13 11:38:32;;;;;;;;;;;;;;;10.78;67.19;101200.13;5110312;28;19973;-85
2022/12/13 11:40:58;;;;;;;;;;;;;;;10.83;67.00;101210.84;5111412;28;20000;-85
2022/12/13 11:43:25;;;;;;;;;;;;;;;10.84;67.42;101221.41;5111140;28;19915;-85
2022/12/13 11:45:53;;;;;;;;;;;;;;;10.83;67.35;101221.31;5107265;28;19924;-85
2022/12/13 11:48:19;;;;;;;;;;;;;;;10.85;67.79;101224.91;5108169;28;19916;-84
2022/12/13 11:50:45;;;;;;;;;;;;;;;10.84;67.74;101224.00;5108921;28;19912;-86
2022/12/13 11:53:14;;;;;;;;;;;;;;;10.85;67.47;101224.91;5087271;28;19919;-86
2022/12/13 11:55:41;;;;;;;;;;;;;;;10.80;67.47;101217.69;5110990;28;19988;-85
2022/12/13 11:58:33;;;;;;;;;;;;;;;10.78;68.07;101232.38;5110122;28;19916;-86
2022/12/13 12:01:00;;;;;;;;;;;;;;;10.82;67.66;101237.81;5107712;28;19922;-85
2022/12/13 12:03:29;;;;;;;;;;;;;;;10.84;67.50;101241.38;5075422;28;19916;-86
2022/12/13 12:06:15;;;;;;;;;;;;;;;10.84;67.33;101233.53;5108196;28;20442;-85
2022/12/13 12:08:45;;;;;;;;;;;;;;;10.85;67.52;101236.25;5085438;28;19918;-86
2022/12/13 12:11:13;;;;;;;;;;;;;;;10.82;67.94;101243.91;5109127;28;20217;-85
2022/12/13 12:13:49;;;;;;;;;;;;;;;10.85;67.93;101233.66;5092957;28;19912;-85
2022/12/13 12:16:21;;;;;;;;;;;;;;;10.87;67.76;101234.63;5092860;28;20301;-85
2022/12/13 12:18:46;;;;;;;;;;;;;;;10.87;68.02;101232.03;5111189;28;20329;-85
2022/12/13 12:21:30;;;;;;;;;;;;;;;10.85;67.99;101230.13;5109635;28;19920;-85
2022/12/13 12:23:59;;;;;;;;;;;;;;;10.84;68.22;101225.69;5108946;28;19969;-85
2022/12/13 12:26:27;;;;;;;;;;;;;;;10.82;67.80;101219.50;5109196;28;19918;-85
2022/12/13 12:29:11;;;;;;;;;;;;;;;10.79;68.16;101226.34;5110255;28;19912;-83
2022/12/13 12:31:52;;;;;;;;;;;;;;;10.79;68.21;101234.19;5110322;28;19912;-85
2022/12/13 12:34:21;;;;;;;;;;;;;;;10.88;68.14;101240.75;5109139;28;19912;-85
2022/12/13 12:37:06;;;;;;;;;;;;;;;10.89;67.97;101238.25;5098852;28;19916;-85
2022/12/13 12:39:50;;;;;;;;;;;;;;;10.90;68.07;101250.53;5110896;28;19916;-85
2022/12/13 12:42:25;;;;;;;;;;;;;;;10.93;67.72;101248.06;5110292;28;19912;-85
2022/12/13 12:44:51;;;;;;;;;;;;;;;10.96;67.95;101248.28;5108222;28;19916;-85
2022/12/13 12:47:35;;;;;;;;;;;;;;;10.86;68.38;101250.22;5100531;28;19980;-86